sensor_id;sensor_type;location;lat;lon;timestamp;pressure;altitude;pressure_sealevel;temperature;humidity
4586;BME280;2305;50.118;8.952;2023-05-16T00:02:04;100292.66;;;15.06;100.00
4586;BME280;2305;50.118;8.952;2023-05-16T00:04:32;100288.97;;;14.99;100.00
4586;BME280;2305;50.118;8.952;2023-05-16T00:07:01;100290.63;;;15.00;100.00
4586;BME280;2305;50.118;8.952;2023-05-16T00:09:32;100288.97;;;14.99;100.00
4586;BME280;2305;50.118;8.952;2023-05-16T00:12:00;100289.94;;;14.98;100.00
4586;BME280;2305;50.118;8.952;2023-05-16T00:14:29;100289.09;;;14.97;100.00
4586;BME280;2305;50.118;8.952;2023-05-16T00:16:58;100287.16;;;14.99;100.00
4586;BME280;2305;50.118;8.952;2023-05-16T00:19:27;100282.13;;;14.96;100.00
4586;BME280;2305;50.118;8.952;2023-05-16T00:21:55;100283.25;;;14.94;100.00
4586;BME280;2305;50.118;8.952;2023-05-16T00:24:24;100279.94;;;14.92;100.00
4586;BME280;2305;50.118;8.952;2023-05-16T00:26:54;100284.41;;;14.91;100.00
4586;BME280;2305;50.118;8.952;2023-05-16T00:29:23;100289.41;;;14.94;100.00
4586;BME280;2305;50.118;8.952;2023-05-16T00:31:53;100280.25;;;14.89;100.00
4586;BME280;2305;50.118;8.952;2023-05-16T00:34:22;100284.88;;;14.87;100.00
4586;BME280;2305;50.118;8.952;2023-05-16T00:36:52;100288.84;;;14.83;100.00
4586;BME280;2305;50.118;8.952;2023-05-16T00:39:21;100295.94;;;14.82;100.00
4586;BME280;2305;50.118;8.952;2023-05-16T00:41:50;100290.78;;;14.81;100.00
4586;BME280;2305;50.118;8.952;2023-05-16T00:44:18;100287.47;;;14.79;100.00
4586;BME280;2305;50.118;8.952;2023-05-16T00:46:48;100287.91;;;14.74;100.00
4586;BME280;2305;50.118;8.952;2023-05-16T00:49:17;100288.91;;;14.73;100.00
4586;BME280;2305;50.118;8.952;2023-05-16T00:51:47;100292.84;;;14.69;100.00
4586;BME280;2305;50.118;8.952;2023-05-16T00:54:17;100277.22;;;14.66;100.00
4586;BME280;2305;50.118;8.952;2023-05-16T00:56:47;100287.47;;;14.61;100.00
4586;BME280;2305;50.118;8.952;2023-05-16T00:59:15;100282.59;;;14.57;100.00
4586;BME280;2305;50.118;8.952;2023-05-16T01:01:46;100278.63;;;14.53;100.00
4586;BME280;2305;50.118;8.952;2023-05-16T01:04:14;100277.38;;;14.47;100.00
4586;BME280;2305;50.118;8.952;2023-05-16T01:06:47;100281.31;;;14.43;100.00
4586;BME280;2305;50.118;8.952;2023-05-16T01:09:15;100280.78;;;14.40;100.00
4586;BME280;2305;50.118;8.952;2023-05-16T01:11:49;100286.16;;;14.30;100.00
4586;BME280;2305;50.118;8.952;2023-05-16T01:14:48;100293.56;;;14.27;100.00
4586;BME280;2305;50.118;8.952;2023-05-16T01:17:21;100300.00;;;14.24;100.00
4586;BME280;2305;50.118;8.952;2023-05-16T01:20:02;100298.63;;;14.20;100.00
4586;BME280;2305;50.118;8.952;2023-05-16T01:22:45;100305.31;;;14.15;100.00
4586;BME280;2305;50.118;8.952;2023-05-16T01:25:37;100304.91;;;14.10;100.00
4586;BME280;2305;50.118;8.952;2023-05-16T01:28:20;100311.50;;;14.06;100.00
4586;BME280;2305;50.118;8.952;2023-05-16T01:30:53;100305.81;;;14.01;100.00
4586;BME280;2305;50.118;8.952;2023-05-16T01:33:27;100301.94;;;13.95;100.00
4586;BME280;2305;50.118;8.952;2023-05-16T01:36:11;100309.50;;;13.90;100.00
4586;BME280;2305;50.118;8.952;2023-05-16T01:38:51;100313.56;;;13.85;100.00
4586;BME280;2305;50.118;8.952;2023-05-16T01:41:35;100311.91;;;13.84;100.00
4586;BME280;2305;50.118;8.952;2023-05-16T01:44:15;100311.63;;;13.77;100.00
4586;BME280;2305;50.118;8.952;2023-05-16T01:46:47;100315.13;;;13.78;100.00
4586;BME280;2305;50.118;8.952;2023-05-16T01:49:24;100312.47;;;13.78;100.00
4586;BME280;2305;50.118;8.952;2023-05-16T01:51:57;100314.28;;;13.77;100.00
4586;BME280;2305;50.118;8.952;2023-05-16T01:54:31;100313.06;;;13.72;100.00
4586;BME280;2305;50.118;8.952;2023-05-16T01:57:03;100318.78;;;13.68;100.00
4586;BME280;2305;50.118;8.952;2023-05-16T01:59:34;100316.44;;;13.65;100.00
4586;BME280;2305;50.118;8.952;2023-05-16T02:02:02;100320.22;;;13.62;100.00
4586;BME280;2305;50.118;8.952;2023-05-16T02:04:34;100325.09;;;13.57;100.00
4586;BME280;2305;50.118;8.952;2023-05-16T02:07:03;100323.00;;;13.51;100.00
4586;BME280;2305;50.118;8.952;2023-05-16T02:09:31;100327.22;;;13.44;100.00
4586;BME280;2305;50.118;8.952;2023-05-16T02:12:02;100328.50;;;13.40;100.00
4586;BME280;2305;50.118;8.952;2023-05-16T02:14:32;100324.44;;;13.36;100.00
4586;BME280;2305;50.118;8.952;2023-05-16T02:17:03;100322.38;;;13.30;100.00
4586;BME280;2305;50.118;8.952;2023-05-16T02:19:35;100330.88;;;13.24;100.00
4586;BME280;2305;50.118;8.952;2023-05-16T02:22:06;100333.94;;;13.20;100.00
4586;BME280;2305;50.118;8.952;2023-05-16T02:24:34;100341.31;;;13.16;100.00
4586;BME280;2305;50.118;8.952;2023-05-16T02:27:04;100328.38;;;13.13;100.00
4586;BME280;2305;50.118;8.952;2023-05-16T02:29:37;100334.25;;;13.07;100.00
4586;BME280;2305;50.118;8.952;2023-05-16T02:32:08;100331.72;;;13.06;100.00
4586;BME280;2305;50.118;8.952;2023-05-16T02:34:37;100325.06;;;13.02;100.00
4586;BME280;2305;50.118;8.952;2023-05-16T02:37:09;100327.97;;;12.99;100.00
4586;BME280;2305;50.118;8.952;2023-05-16T02:39:42;100333.09;;;12.91;100.00
4586;BME280;2305;50.118;8.952;2023-05-16T02:42:11;100343.66;;;12.91;100.00
4586;BME280;2305;50.118;8.952;2023-05-16T02:44:41;100336.03;;;12.88;100.00
4586;BME280;2305;50.118;8.952;2023-05-16T02:47:10;100340.34;;;12.89;100.00
4586;BME280;2305;50.118;8.952;2023-05-16T02:49:40;100336.16;;;12.86;100.00
4586;BME280;2305;50.118;8.952;2023-05-16T02:52:12;100335.03;;;12.79;100.00
4586;BME280;2305;50.118;8.952;2023-05-16T02:54:41;100325.72;;;12.75;100.00
4586;BME280;2305;50.118;8.952;2023-05-16T02:57:10;100329.50;;;12.73;100.00
4586;BME280;2305;50.118;8.952;2023-05-16T02:59:38;100332.25;;;12.71;100.00
4586;BME280;2305;50.118;8.952;2023-05-16T03:02:10;100336.72;;;12.61;100.00
4586;BME280;2305;50.118;8.952;2023-05-16T03:04:39;100340.59;;;12.57;100.00
4586;BME280;2305;50.118;8.952;2023-05-16T03:07:07;100337.25;;;12.55;100.00
4586;BME280;2305;50.118;8.952;2023-05-16T03:09:42;100335.84;;;12.51;100.00
4586;BME280;2305;50.118;8.952;2023-05-16T03:12:12;100330.28;;;12.45;100.00
4586;BME280;2305;50.118;8.952;2023-05-16T03:14:41;100336.56;;;12.44;100.00
4586;BME280;2305;50.118;8.952;2023-05-16T03:17:12;100334.84;;;12.43;100.00
4586;BME280;2305;50.118;8.952;2023-05-16T03:19:40;100341.69;;;12.45;100.00
4586;BME280;2305;50.118;8.952;2023-05-16T03:22:10;100344.47;;;12.44;100.00
4586;BME280;2305;50.118;8.952;2023-05-16T03:24:44;100353.22;;;12.44;100.00
4586;BME280;2305;50.118;8.952;2023-05-16T03:27:13;100363.91;;;12.43;100.00
4586;BME280;2305;50.118;8.952;2023-05-16T03:29:44;100358.50;;;12.44;100.00
4586;BME280;2305;50.118;8.952;2023-05-16T03:32:16;100362.00;;;12.45;100.00
4586;BME280;2305;50.118;8.952;2023-05-16T03:34:46;100358.09;;;12.49;100.00
4586;BME280;2305;50.118;8.952;2023-05-16T03:37:16;100357.69;;;12.53;100.00
4586;BME280;2305;50.118;8.952;2023-05-16T03:39:45;100357.31;;;12.58;100.00
4586;BME280;2305;50.118;8.952;2023-05-16T03:42:17;100365.91;;;12.60;100.00
4586;BME280;2305;50.118;8.952;2023-05-16T03:44:48;100354.94;;;12.64;100.00
4586;BME280;2305;50.118;8.952;2023-05-16T03:47:19;100361.88;;;12.65;100.00
4586;BME280;2305;50.118;8.952;2023-05-16T03:49:47;100363.44;;;12.68;100.00
4586;BME280;2305;50.118;8.952;2023-05-16T03:52:16;100371.06;;;12.71;100.00
4586;BME280;2305;50.118;8.952;2023-05-16T03:54:44;100372.47;;;12.75;100.00
4586;BME280;2305;50.118;8.952;2023-05-16T03:57:13;100361.78;;;12.76;100.00
4586;BME280;2305;50.118;8.952;2023-05-16T03:59:42;100371.94;;;12.81;100.00
4586;BME280;2305;50.118;8.952;2023-05-16T04:02:12;100377.06;;;12.82;100.00
4586;BME280;2305;50.118;8.952;2023-05-16T04:04:46;100366.47;;;12.82;100.00
4586;BME280;2305;50.118;8.952;2023-05-16T04:07:14;100374.72;;;12.89;100.00
4586;BME280;2305;50.118;8.952;2023-05-16T04:09:45;100376.25;;;12.91;100.00
4586;BME280;2305;50.118;8.952;2023-05-16T04:12:14;100375.28;;;12.92;100.00
4586;BME280;2305;50.118;8.952;2023-05-16T04:14:42;100379.88;;;12.90;100.00
4586;BME280;2305;50.118;8.952;2023-05-16T04:17:10;100379.03;;;12.90;100.00
4586;BME280;2305;50.118;8.952;2023-05-16T04:19:40;100390.47;;;12.90;100.00
4586;BME280;2305;50.118;8.952;2023-05-16T04:22:10;100385.84;;;12.92;100.00
4586;BME280;2305;50.118;8.952;2023-05-16T04:24:39;100388.38;;;12.94;100.00
4586;BME280;2305;50.118;8.952;2023-05-16T04:27:09;100392.16;;;13.01;100.00
4586;BME280;2305;50.118;8.952;2023-05-16T04:29:37;100386.59;;;13.04;100.00
4586;BME280;2305;50.118;8.952;2023-05-16T04:32:08;100393.28;;;13.08;100.00
4586;BME280;2305;50.118;8.952;2023-05-16T04:34:39;100390.06;;;13.14;100.00
4586;BME280;2305;50.118;8.952;2023-05-16T04:37:11;100387.72;;;13.20;100.00
4586;BME280;2305;50.118;8.952;2023-05-16T04:39:42;100387.28;;;13.25;100.00
4586;BME280;2305;50.118;8.952;2023-05-16T04:42:12;100388.69;;;13.29;100.00
4586;BME280;2305;50.118;8.952;2023-05-16T04:44:41;100393.56;;;13.33;100.00
4586;BME280;2305;50.118;8.952;2023-05-16T04:47:09;100398.28;;;13.39;100.00
4586;BME280;2305;50.118;8.952;2023-05-16T04:49:44;100403.00;;;13.45;100.00
4586;BME280;2305;50.118;8.952;2023-05-16T04:52:13;100411.91;;;13.54;100.00
4586;BME280;2305;50.118;8.952;2023-05-16T04:54:41;100402.72;;;13.58;100.00
4586;BME280;2305;50.118;8.952;2023-05-16T04:57:12;100402.13;;;13.63;100.00
4586;BME280;2305;50.118;8.952;2023-05-16T04:59:40;100402.53;;;13.68;100.00
4586;BME280;2305;50.118;8.952;2023-05-16T05:02:10;100400.84;;;13.77;100.00
4586;BME280;2305;50.118;8.952;2023-05-16T05:04:40;100407.53;;;13.81;100.00
4586;BME280;2305;50.118;8.952;2023-05-16T05:07:10;100414.91;;;13.87;100.00
4586;BME280;2305;50.118;8.952;2023-05-16T05:09:42;100417.09;;;13.91;100.00
4586;BME280;2305;50.118;8.952;2023-05-16T05:12:10;100411.53;;;13.94;100.00
4586;BME280;2305;50.118;8.952;2023-05-16T05:14:39;100421.56;;;14.00;100.00
4586;BME280;2305;50.118;8.952;2023-05-16T05:17:08;100418.47;;;14.05;100.00
4586;BME280;2305;50.118;8.952;2023-05-16T05:19:37;100420.81;;;14.08;100.00
4586;BME280;2305;50.118;8.952;2023-05-16T05:22:06;100424.88;;;14.12;100.00
4586;BME280;2305;50.118;8.952;2023-05-16T05:24:34;100430.56;;;14.17;100.00
4586;BME280;2305;50.118;8.952;2023-05-16T05:27:05;100429.47;;;14.19;100.00
4586;BME280;2305;50.118;8.952;2023-05-16T05:29:33;100428.34;;;14.22;100.00
4586;BME280;2305;50.118;8.952;2023-05-16T05:32:06;100435.03;;;14.26;100.00
4586;BME280;2305;50.118;8.952;2023-05-16T05:34:35;100427.09;;;14.26;100.00
4586;BME280;2305;50.118;8.952;2023-05-16T05:37:04;100432.38;;;14.26;100.00
4586;BME280;2305;50.118;8.952;2023-05-16T05:39:32;100431.66;;;14.24;100.00
4586;BME280;2305;50.118;8.952;2023-05-16T05:42:00;100435.63;;;14.20;100.00
4586;BME280;2305;50.118;8.952;2023-05-16T05:44:30;100431.97;;;14.21;100.00
4586;BME280;2305;50.118;8.952;2023-05-16T05:47:00;100433.38;;;14.25;100.00
4586;BME280;2305;50.118;8.952;2023-05-16T05:49:31;100431.13;;;14.20;100.00
4586;BME280;2305;50.118;8.952;2023-05-16T05:52:05;100440.22;;;14.18;100.00
4586;BME280;2305;50.118;8.952;2023-05-16T05:54:33;100433.50;;;14.14;100.00
4586;BME280;2305;50.118;8.952;2023-05-16T05:57:01;100439.47;;;14.16;100.00
4586;BME280;2305;50.118;8.952;2023-05-16T05:59:31;100431.28;;;14.19;100.00
4586;BME280;2305;50.118;8.952;2023-05-16T06:01:59;100444.38;;;14.20;100.00
4586;BME280;2305;50.118;8.952;2023-05-16T06:04:28;100444.25;;;14.22;100.00
4586;BME280;2305;50.118;8.952;2023-05-16T06:06:56;100443.78;;;14.36;100.00
4586;BME280;2305;50.118;8.952;2023-05-16T06:09:25;100457.44;;;14.41;100.00
4586;BME280;2305;50.118;8.952;2023-05-16T06:11:53;100452.38;;;14.47;100.00
4586;BME280;2305;50.118;8.952;2023-05-16T06:14:22;100457.03;;;14.36;100.00
4586;BME280;2305;50.118;8.952;2023-05-16T06:16:51;100463.56;;;14.41;100.00
4586;BME280;2305;50.118;8.952;2023-05-16T06:19:22;100458.22;;;14.51;100.00
4586;BME280;2305;50.118;8.952;2023-05-16T06:21:51;100472.66;;;14.39;100.00
4586;BME280;2305;50.118;8.952;2023-05-16T06:24:19;100478.22;;;14.36;100.00
4586;BME280;2305;50.118;8.952;2023-05-16T06:26:50;100474.47;;;14.38;100.00
4586;BME280;2305;50.118;8.952;2023-05-16T06:29:18;100476.81;;;14.41;100.00
4586;BME280;2305;50.118;8.952;2023-05-16T06:31:47;100485.44;;;14.53;100.00
4586;BME280;2305;50.118;8.952;2023-05-16T06:34:17;100490.53;;;14.64;100.00
4586;BME280;2305;50.118;8.952;2023-05-16T06:36:46;100500.56;;;14.70;100.00
4586;BME280;2305;50.118;8.952;2023-05-16T06:39:14;100499.00;;;14.77;100.00
4586;BME280;2305;50.118;8.952;2023-05-16T06:41:44;100501.22;;;14.81;100.00
4586;BME280;2305;50.118;8.952;2023-05-16T06:44:15;100506.19;;;14.84;100.00
4586;BME280;2305;50.118;8.952;2023-05-16T06:46:44;100510.56;;;14.85;100.00
4586;BME280;2305;50.118;8.952;2023-05-16T06:49:12;100509.41;;;14.88;100.00
4586;BME280;2305;50.118;8.952;2023-05-16T06:51:44;100509.13;;;14.91;100.00
4586;BME280;2305;50.118;8.952;2023-05-16T06:54:12;100506.91;;;14.86;100.00
4586;BME280;2305;50.118;8.952;2023-05-16T06:56:41;100517.53;;;14.86;100.00
4586;BME280;2305;50.118;8.952;2023-05-16T06:59:09;100514.78;;;14.78;100.00
4586;BME280;2305;50.118;8.952;2023-05-16T07:01:39;100523.09;;;14.83;100.00
4586;BME280;2305;50.118;8.952;2023-05-16T07:04:08;100525.09;;;14.81;100.00
4586;BME280;2305;50.118;8.952;2023-05-16T07:06:36;100533.59;;;14.85;100.00
4586;BME280;2305;50.118;8.952;2023-05-16T07:09:06;100532.31;;;14.89;100.00
4586;BME280;2305;50.118;8.952;2023-05-16T07:11:35;100538.44;;;14.89;100.00
4586;BME280;2305;50.118;8.952;2023-05-16T07:14:05;100541.94;;;14.90;100.00
4586;BME280;2305;50.118;8.952;2023-05-16T07:16:36;100541.06;;;14.99;100.00
4586;BME280;2305;50.118;8.952;2023-05-16T07:19:06;100539.88;;;15.11;100.00
4586;BME280;2305;50.118;8.952;2023-05-16T07:21:34;100551.19;;;15.13;100.00
4586;BME280;2305;50.118;8.952;2023-05-16T07:24:09;100545.06;;;15.30;100.00
4586;BME280;2305;50.118;8.952;2023-05-16T07:26:37;100553.88;;;15.30;100.00
4586;BME280;2305;50.118;8.952;2023-05-16T07:29:06;100563.09;;;15.36;100.00
4586;BME280;2305;50.118;8.952;2023-05-16T07:31:34;100564.59;;;15.38;100.00
4586;BME280;2305;50.118;8.952;2023-05-16T07:34:08;100576.63;;;15.42;100.00
4586;BME280;2305;50.118;8.952;2023-05-16T07:36:37;100574.38;;;15.38;100.00
4586;BME280;2305;50.118;8.952;2023-05-16T07:39:05;100575.00;;;15.32;100.00
4586;BME280;2305;50.118;8.952;2023-05-16T07:41:38;100578.25;;;15.16;100.00
4586;BME280;2305;50.118;8.952;2023-05-16T07:44:06;100581.06;;;15.15;100.00
4586;BME280;2305;50.118;8.952;2023-05-16T07:46:35;100587.78;;;15.09;100.00
4586;BME280;2305;50.118;8.952;2023-05-16T07:49:03;100589.22;;;15.04;100.00
4586;BME280;2305;50.118;8.952;2023-05-16T07:51:33;100585.19;;;15.00;100.00
4586;BME280;2305;50.118;8.952;2023-05-16T07:54:04;100594.28;;;14.97;100.00
4586;BME280;2305;50.118;8.952;2023-05-16T07:56:33;100587.28;;;14.96;100.00
4586;BME280;2305;50.118;8.952;2023-05-16T07:59:03;100595.69;;;14.92;100.00
4586;BME280;2305;50.118;8.952;2023-05-16T08:01:33;100599.78;;;14.86;100.00
4586;BME280;2305;50.118;8.952;2023-05-16T08:04:05;100602.25;;;14.88;100.00
4586;BME280;2305;50.118;8.952;2023-05-16T08:06:34;100603.81;;;14.81;100.00
4586;BME280;2305;50.118;8.952;2023-05-16T08:09:04;100614.31;;;14.73;100.00
4586;BME280;2305;50.118;8.952;2023-05-16T08:11:32;100625.81;;;14.54;100.00
4586;BME280;2305;50.118;8.952;2023-05-16T08:14:03;100626.94;;;14.52;100.00
4586;BME280;2305;50.118;8.952;2023-05-16T08:16:34;100629.75;;;14.41;100.00
4586;BME280;2305;50.118;8.952;2023-05-16T08:19:03;100634.63;;;14.17;100.00
4586;BME280;2305;50.118;8.952;2023-05-16T08:21:33;100639.94;;;13.98;100.00
4586;BME280;2305;50.118;8.952;2023-05-16T08:24:01;100651.94;;;13.92;100.00
4586;BME280;2305;50.118;8.952;2023-05-16T08:26:31;100646.63;;;13.83;100.00
4586;BME280;2305;50.118;8.952;2023-05-16T08:28:59;100647.16;;;13.77;100.00
4586;BME280;2305;50.118;8.952;2023-05-16T08:31:33;100646.72;;;13.72;100.00
4586;BME280;2305;50.118;8.952;2023-05-16T08:34:01;100650.22;;;13.73;100.00
4586;BME280;2305;50.118;8.952;2023-05-16T08:36:32;100642.13;;;13.83;100.00
4586;BME280;2305;50.118;8.952;2023-05-16T08:39:01;100647.16;;;13.77;100.00
4586;BME280;2305;50.118;8.952;2023-05-16T08:41:32;100645.78;;;13.82;100.00
4586;BME280;2305;50.118;8.952;2023-05-16T08:44:02;100657.34;;;13.81;100.00
4586;BME280;2305;50.118;8.952;2023-05-16T08:46:34;100660.66;;;13.74;100.00
4586;BME280;2305;50.118;8.952;2023-05-16T08:49:05;100662.50;;;13.83;100.00
4586;BME280;2305;50.118;8.952;2023-05-16T08:51:34;100656.66;;;13.89;100.00
4586;BME280;2305;50.118;8.952;2023-05-16T08:54:11;100661.00;;;13.90;100.00
4586;BME280;2305;50.118;8.952;2023-05-16T08:56:40;100666.13;;;13.91;100.00
4586;BME280;2305;50.118;8.952;2023-05-16T08:59:09;100662.78;;;13.89;100.00
4586;BME280;2305;50.118;8.952;2023-05-16T09:01:39;100667.41;;;14.16;100.00
4586;BME280;2305;50.118;8.952;2023-05-16T09:04:08;100675.22;;;14.17;100.00
4586;BME280;2305;50.118;8.952;2023-05-16T09:06:38;100668.25;;;14.16;100.00
4586;BME280;2305;50.118;8.952;2023-05-16T09:09:07;100671.31;;;14.12;100.00
4586;BME280;2305;50.118;8.952;2023-05-16T09:11:38;100675.78;;;14.11;100.00
4586;BME280;2305;50.118;8.952;2023-05-16T09:14:08;100668.13;;;14.08;100.00
4586;BME280;2305;50.118;8.952;2023-05-16T09:16:41;100667.25;;;14.08;100.00
4586;BME280;2305;50.118;8.952;2023-05-16T09:19:12;100660.72;;;14.12;100.00
4586;BME280;2305;50.118;8.952;2023-05-16T09:21:40;100666.19;;;14.20;100.00
4586;BME280;2305;50.118;8.952;2023-05-16T09:24:12;100655.03;;;14.26;100.00
4586;BME280;2305;50.118;8.952;2023-05-16T09:26:43;100653.06;;;14.28;100.00
4586;BME280;2305;50.118;8.952;2023-05-16T09:29:17;100650.84;;;14.33;100.00
4586;BME280;2305;50.118;8.952;2023-05-16T09:31:48;100655.03;;;14.35;100.00
4586;BME280;2305;50.118;8.952;2023-05-16T09:34:24;100651.41;;;14.36;100.00
4586;BME280;2305;50.118;8.952;2023-05-16T09:36:53;100662.13;;;14.44;100.00
4586;BME280;2305;50.118;8.952;2023-05-16T09:39:26;100662.81;;;14.46;100.00
4586;BME280;2305;50.118;8.952;2023-05-16T09:41:54;100657.53;;;14.46;100.00
4586;BME280;2305;50.118;8.952;2023-05-16T09:44:22;100652.09;;;14.48;100.00
4586;BME280;2305;50.118;8.952;2023-05-16T09:46:53;100659.06;;;14.58;100.00
4586;BME280;2305;50.118;8.952;2023-05-16T09:49:22;100660.16;;;14.65;100.00
4586;BME280;2305;50.118;8.952;2023-05-16T09:51:52;100667.66;;;14.79;100.00
4586;BME280;2305;50.118;8.952;2023-05-16T09:54:29;100666.09;;;14.96;100.00
4586;BME280;2305;50.118;8.952;2023-05-16T09:56:58;100663.25;;;15.07;100.00
4586;BME280;2305;50.118;8.952;2023-05-16T09:59:29;100679.25;;;15.24;100.00
4586;BME280;2305;50.118;8.952;2023-05-16T10:01:57;100676.00;;;15.40;100.00
4586;BME280;2305;50.118;8.952;2023-05-16T10:04:26;100670.91;;;15.46;100.00
4586;BME280;2305;50.118;8.952;2023-05-16T10:06:55;100669.31;;;15.63;100.00
4586;BME280;2305;50.118;8.952;2023-05-16T10:09:24;100673.91;;;15.88;100.00
4586;BME280;2305;50.118;8.952;2023-05-16T10:11:54;100669.66;;;16.12;100.00
4586;BME280;2305;50.118;8.952;2023-05-16T10:14:24;100661.31;;;16.25;100.00
4586;BME280;2305;50.118;8.952;2023-05-16T10:16:53;100656.16;;;16.41;100.00
4586;BME280;2305;50.118;8.952;2023-05-16T10:19:24;100660.84;;;16.64;100.00
4586;BME280;2305;50.118;8.952;2023-05-16T10:21:56;100650.50;;;16.87;100.00
4586;BME280;2305;50.118;8.952;2023-05-16T10:24:28;100656.75;;;17.03;100.00
4586;BME280;2305;50.118;8.952;2023-05-16T10:26:58;100663.22;;;17.26;100.00
4586;BME280;2305;50.118;8.952;2023-05-16T10:29:27;100650.50;;;17.46;100.00
4586;BME280;2305;50.118;8.952;2023-05-16T10:32:06;100660.19;;;17.55;100.00
4586;BME280;2305;50.118;8.952;2023-05-16T10:34:35;100667.69;;;17.59;100.00
4586;BME280;2305;50.118;8.952;2023-05-16T10:37:05;100660.84;;;17.57;100.00
4586;BME280;2305;50.118;8.952;2023-05-16T10:39:34;100658.22;;;17.65;100.00
4586;BME280;2305;50.118;8.952;2023-05-16T10:42:04;100658.81;;;17.84;100.00
4586;BME280;2305;50.118;8.952;2023-05-16T10:44:32;100662.66;;;17.98;100.00
4586;BME280;2305;50.118;8.952;2023-05-16T10:47:00;100657.47;;;17.96;98.98
4586;BME280;2305;50.118;8.952;2023-05-16T10:49:31;100647.78;;;17.87;100.00
4586;BME280;2305;50.118;8.952;2023-05-16T10:52:06;100662.59;;;17.74;100.00
4586;BME280;2305;50.118;8.952;2023-05-16T10:54:35;100654.06;;;17.62;100.00
4586;BME280;2305;50.118;8.952;2023-05-16T10:57:07;100657.19;;;17.58;100.00
4586;BME280;2305;50.118;8.952;2023-05-16T10:59:40;100662.72;;;17.64;100.00
4586;BME280;2305;50.118;8.952;2023-05-16T11:02:22;100655.72;;;17.55;100.00
4586;BME280;2305;50.118;8.952;2023-05-16T11:04:51;100670.84;;;17.55;100.00
4586;BME280;2305;50.118;8.952;2023-05-16T11:07:23;100661.72;;;17.57;100.00
4586;BME280;2305;50.118;8.952;2023-05-16T11:10:06;100670.25;;;17.69;100.00
4586;BME280;2305;50.118;8.952;2023-05-16T11:12:43;100667.78;;;17.83;100.00
4586;BME280;2305;50.118;8.952;2023-05-16T11:15:20;100679.75;;;17.71;100.00
4586;BME280;2305;50.118;8.952;2023-05-16T11:18:02;100678.59;;;17.74;100.00
4586;BME280;2305;50.118;8.952;2023-05-16T11:20:33;100672.63;;;17.80;100.00
4586;BME280;2305;50.118;8.952;2023-05-16T11:23:24;100681.41;;;17.72;100.00
4586;BME280;2305;50.118;8.952;2023-05-16T11:25:55;100680.22;;;17.59;100.00
4586;BME280;2305;50.118;8.952;2023-05-16T11:28:24;100683.78;;;17.42;100.00
4586;BME280;2305;50.118;8.952;2023-05-16T11:30:54;100681.66;;;17.20;100.00
4586;BME280;2305;50.118;8.952;2023-05-16T11:33:23;100676.16;;;17.21;100.00
4586;BME280;2305;50.118;8.952;2023-05-16T11:36:01;100672.59;;;17.38;100.00
4586;BME280;2305;50.118;8.952;2023-05-16T11:38:43;100674.56;;;17.36;96.33
4586;BME280;2305;50.118;8.952;2023-05-16T11:41:11;100665.22;;;17.32;94.47
4586;BME280;2305;50.118;8.952;2023-05-16T11:43:44;100673.00;;;17.51;97.08
4586;BME280;2305;50.118;8.952;2023-05-16T11:46:13;100675.69;;;17.59;94.75
4586;BME280;2305;50.118;8.952;2023-05-16T11:48:42;100678.00;;;17.54;92.48
4586;BME280;2305;50.118;8.952;2023-05-16T11:51:13;100689.31;;;17.48;91.35
4586;BME280;2305;50.118;8.952;2023-05-16T11:53:46;100685.81;;;17.48;92.03
4586;BME280;2305;50.118;8.952;2023-05-16T11:56:15;100694.28;;;17.43;91.75
4586;BME280;2305;50.118;8.952;2023-05-16T11:58:44;100699.41;;;17.37;94.18
4586;BME280;2305;50.118;8.952;2023-05-16T12:01:14;100698.25;;;17.39;88.89
4586;BME280;2305;50.118;8.952;2023-05-16T12:03:53;100697.44;;;17.39;87.20
4586;BME280;2305;50.118;8.952;2023-05-16T12:06:22;100703.63;;;17.47;90.93
4586;BME280;2305;50.118;8.952;2023-05-16T12:08:51;100704.34;;;17.57;87.92
4586;BME280;2305;50.118;8.952;2023-05-16T12:11:22;100705.75;;;17.69;87.46
4586;BME280;2305;50.118;8.952;2023-05-16T12:13:51;100692.44;;;17.77;80.84
4586;BME280;2305;50.118;8.952;2023-05-16T12:16:24;100696.16;;;17.92;83.43
4586;BME280;2305;50.118;8.952;2023-05-16T12:18:54;100694.84;;;18.12;78.87
4586;BME280;2305;50.118;8.952;2023-05-16T12:21:24;100705.84;;;18.09;80.93
4586;BME280;2305;50.118;8.952;2023-05-16T12:23:55;100697.03;;;18.25;79.96
4586;BME280;2305;50.118;8.952;2023-05-16T12:26:27;100701.09;;;18.45;81.14
4586;BME280;2305;50.118;8.952;2023-05-16T12:28:56;100696.75;;;18.60;78.89
4586;BME280;2305;50.118;8.952;2023-05-16T12:31:26;100696.41;;;18.78;80.37
4586;BME280;2305;50.118;8.952;2023-05-16T12:33:58;100688.03;;;18.97;79.77
4586;BME280;2305;50.118;8.952;2023-05-16T12:36:30;100684.53;;;19.21;76.84
4586;BME280;2305;50.118;8.952;2023-05-16T12:39:01;100677.41;;;19.44;76.46
4586;BME280;2305;50.118;8.952;2023-05-16T12:41:39;100683.38;;;19.62;74.82
4586;BME280;2305;50.118;8.952;2023-05-16T12:44:12;100681.59;;;19.85;76.02
4586;BME280;2305;50.118;8.952;2023-05-16T12:46:46;100690.19;;;19.95;74.31
4586;BME280;2305;50.118;8.952;2023-05-16T12:49:18;100696.03;;;20.06;69.66
4586;BME280;2305;50.118;8.952;2023-05-16T12:51:48;100676.19;;;20.23;64.06
4586;BME280;2305;50.118;8.952;2023-05-16T12:54:18;100683.69;;;20.28;58.77
4586;BME280;2305;50.118;8.952;2023-05-16T12:56:48;100675.09;;;20.32;57.42
4586;BME280;2305;50.118;8.952;2023-05-16T12:59:17;100681.00;;;20.50;58.86
4586;BME280;2305;50.118;8.952;2023-05-16T13:01:46;100673.72;;;20.59;62.72
4586;BME280;2305;50.118;8.952;2023-05-16T13:04:15;100684.63;;;20.57;63.53
4586;BME280;2305;50.118;8.952;2023-05-16T13:06:46;100679.63;;;20.54;63.68
4586;BME280;2305;50.118;8.952;2023-05-16T13:09:19;100688.66;;;20.53;58.54
4586;BME280;2305;50.118;8.952;2023-05-16T13:11:47;100679.91;;;20.37;53.25
4586;BME280;2305;50.118;8.952;2023-05-16T13:14:16;100693.44;;;20.21;54.58
4586;BME280;2305;50.118;8.952;2023-05-16T13:16:44;100682.81;;;20.35;59.59
4586;BME280;2305;50.118;8.952;2023-05-16T13:19:17;100683.84;;;20.71;58.47
4586;BME280;2305;50.118;8.952;2023-05-16T13:21:45;100684.47;;;21.10;54.59